首页
METAR-TAF:

METAR-TAF

机场 :

米蘇拉, 蒙大拿州, 美国

纬度: 46-55-15N, 经度: 114-05-33W, 海拔: 975米

当前天气观测

该预报发布于17分钟前的21:53 UTC
风速3节,风向多变
温度 29°C
湿度 19%
气压 1015 hPa
能見度: 16.1公里
天空无云

METAR: KMSO 182153Z VRB03KT 10SM CLR 29/03 A2996 RMK AO2 SLP127 T02890028 $

时间: 16:10 (22:10 UTC)

预报

该预报发布于4小时和50分钟前的17:20 UTC
预报有效从18日的 18点(UTC)到 19日的 18点(UTC)
风速节,风向
能見度: 10公里
天空无云
从 18日的 2100点(UTC)
风速12节,风向西北,有时为22节阵风
能見度: 10公里
天空无云
从 19日的 0100点(UTC)
风速3节,风向多变
能見度: 10公里
天空无云

TAF: KMSO 181720Z 1818/1918 00000KT P6SM SKC FM182100 31012G22KT P6SM SKC FM190100 VRB03KT P6SM SKC

超过4000个机场的气象观测和天气预报(METAR&TAF报告)。

可查询的气象台以黄色和红色小点在地图上表示。

将鼠标移到小点上方,可查看气象台名称。

然后点击查看天气观测和预报。

如需切换地图:点击带黑十字的绿色按钮放大地图;点击带横线的绿色按钮缩小地图;或者点击绿色箭头查看邻近地区的地图。


METAR-TAF: